sensor_id;sensor_type;location;lat;lon;timestamp;temperature;humidity
34766;DHT22;20984;43.508;1.504;2023-04-06T00:01:37;5.50;99.90
34766;DHT22;20984;43.508;1.504;2023-04-06T00:04:03;5.50;99.90
34766;DHT22;20984;43.508;1.504;2023-04-06T00:06:28;5.50;99.90
34766;DHT22;20984;43.508;1.504;2023-04-06T00:08:55;5.40;99.90
34766;DHT22;20984;43.508;1.504;2023-04-06T00:11:21;5.40;99.90
34766;DHT22;20984;43.508;1.504;2023-04-06T00:13:47;5.40;99.90
34766;DHT22;20984;43.508;1.504;2023-04-06T00:16:13;5.30;99.90
34766;DHT22;20984;43.508;1.504;2023-04-06T00:18:39;5.30;99.90
34766;DHT22;20984;43.508;1.504;2023-04-06T00:21:05;5.20;99.90
34766;DHT22;20984;43.508;1.504;2023-04-06T00:23:31;5.10;99.90
34766;DHT22;20984;43.508;1.504;2023-04-06T00:25:56;5.00;99.90
34766;DHT22;20984;43.508;1.504;2023-04-06T00:28:22;5.10;99.90
34766;DHT22;20984;43.508;1.504;2023-04-06T00:30:52;5.10;99.90
34766;DHT22;20984;43.508;1.504;2023-04-06T00:33:21;5.00;99.90
34766;DHT22;20984;43.508;1.504;2023-04-06T00:35:48;5.00;99.90
34766;DHT22;20984;43.508;1.504;2023-04-06T00:38:15;5.00;99.90
34766;DHT22;20984;43.508;1.504;2023-04-06T00:40:41;5.00;99.90
34766;DHT22;20984;43.508;1.504;2023-04-06T00:43:07;5.00;99.90
34766;DHT22;20984;43.508;1.504;2023-04-06T00:45:34;4.90;99.90
34766;DHT22;20984;43.508;1.504;2023-04-06T00:48:00;4.90;99.90
34766;DHT22;20984;43.508;1.504;2023-04-06T00:50:27;4.80;99.90
34766;DHT22;20984;43.508;1.504;2023-04-06T00:52:54;4.80;99.90
34766;DHT22;20984;43.508;1.504;2023-04-06T00:55:20;4.70;99.90
34766;DHT22;20984;43.508;1.504;2023-04-06T00:57:45;4.70;99.90
34766;DHT22;20984;43.508;1.504;2023-04-06T01:00:11;4.60;99.90
34766;DHT22;20984;43.508;1.504;2023-04-06T01:02:38;4.60;99.90
34766;DHT22;20984;43.508;1.504;2023-04-06T01:05:04;4.50;99.90
34766;DHT22;20984;43.508;1.504;2023-04-06T01:07:30;4.50;99.90
34766;DHT22;20984;43.508;1.504;2023-04-06T01:09:56;4.50;99.90
34766;DHT22;20984;43.508;1.504;2023-04-06T01:12:21;4.40;99.90
34766;DHT22;20984;43.508;1.504;2023-04-06T01:14:47;4.50;99.90
34766;DHT22;20984;43.508;1.504;2023-04-06T01:17:13;4.50;99.90
34766;DHT22;20984;43.508;1.504;2023-04-06T01:19:39;4.60;99.90
34766;DHT22;20984;43.508;1.504;2023-04-06T01:22:06;4.60;99.90
34766;DHT22;20984;43.508;1.504;2023-04-06T01:24:32;4.60;99.90
34766;DHT22;20984;43.508;1.504;2023-04-06T01:26:58;4.60;99.90
34766;DHT22;20984;43.508;1.504;2023-04-06T01:29:24;4.50;99.90
34766;DHT22;20984;43.508;1.504;2023-04-06T01:31:50;4.50;99.90
34766;DHT22;20984;43.508;1.504;2023-04-06T01:34:16;4.40;99.90
34766;DHT22;20984;43.508;1.504;2023-04-06T01:36:41;4.30;99.90
34766;DHT22;20984;43.508;1.504;2023-04-06T01:39:07;4.30;99.90
34766;DHT22;20984;43.508;1.504;2023-04-06T01:41:33;4.30;99.90
34766;DHT22;20984;43.508;1.504;2023-04-06T01:43:59;4.30;99.90
34766;DHT22;20984;43.508;1.504;2023-04-06T01:46:25;4.20;99.90
34766;DHT22;20984;43.508;1.504;2023-04-06T01:48:50;4.20;99.90
34766;DHT22;20984;43.508;1.504;2023-04-06T01:51:16;4.20;99.90
34766;DHT22;20984;43.508;1.504;2023-04-06T01:53:42;4.20;99.90
34766;DHT22;20984;43.508;1.504;2023-04-06T01:56:07;4.20;99.90
34766;DHT22;20984;43.508;1.504;2023-04-06T01:58:33;4.20;99.90
34766;DHT22;20984;43.508;1.504;2023-04-06T02:00:59;4.20;99.90
34766;DHT22;20984;43.508;1.504;2023-04-06T02:03:24;4.10;99.90
34766;DHT22;20984;43.508;1.504;2023-04-06T02:05:50;4.10;99.90
34766;DHT22;20984;43.508;1.504;2023-04-06T02:08:16;4.20;99.90
34766;DHT22;20984;43.508;1.504;2023-04-06T02:10:41;4.20;99.90
34766;DHT22;20984;43.508;1.504;2023-04-06T02:13:07;4.20;99.90
34766;DHT22;20984;43.508;1.504;2023-04-06T02:15:33;4.10;99.90
34766;DHT22;20984;43.508;1.504;2023-04-06T02:17:59;4.10;99.90
34766;DHT22;20984;43.508;1.504;2023-04-06T02:20:25;4.10;99.90
34766;DHT22;20984;43.508;1.504;2023-04-06T02:22:51;4.00;99.90
34766;DHT22;20984;43.508;1.504;2023-04-06T02:25:16;4.00;99.90
34766;DHT22;20984;43.508;1.504;2023-04-06T02:27:42;4.00;99.90
34766;DHT22;20984;43.508;1.504;2023-04-06T02:30:08;4.00;99.90
34766;DHT22;20984;43.508;1.504;2023-04-06T02:32:34;4.00;99.90
34766;DHT22;20984;43.508;1.504;2023-04-06T02:35:00;4.00;99.90
34766;DHT22;20984;43.508;1.504;2023-04-06T02:37:25;4.10;99.90
34766;DHT22;20984;43.508;1.504;2023-04-06T02:39:51;4.10;99.90
34766;DHT22;20984;43.508;1.504;2023-04-06T02:42:17;4.00;99.90
34766;DHT22;20984;43.508;1.504;2023-04-06T02:44:43;4.00;99.90
34766;DHT22;20984;43.508;1.504;2023-04-06T02:47:09;4.00;99.90
34766;DHT22;20984;43.508;1.504;2023-04-06T02:49:35;3.90;99.90
34766;DHT22;20984;43.508;1.504;2023-04-06T02:52:01;3.90;99.90
34766;DHT22;20984;43.508;1.504;2023-04-06T02:54:27;4.00;99.90
34766;DHT22;20984;43.508;1.504;2023-04-06T02:56:53;3.90;99.90
34766;DHT22;20984;43.508;1.504;2023-04-06T02:59:18;3.90;99.90
34766;DHT22;20984;43.508;1.504;2023-04-06T03:01:44;3.90;99.90
34766;DHT22;20984;43.508;1.504;2023-04-06T03:04:10;3.90;99.90
34766;DHT22;20984;43.508;1.504;2023-04-06T03:06:36;3.90;99.90
34766;DHT22;20984;43.508;1.504;2023-04-06T03:09:02;3.90;99.90
34766;DHT22;20984;43.508;1.504;2023-04-06T03:11:28;3.90;99.90
34766;DHT22;20984;43.508;1.504;2023-04-06T03:13:53;4.00;99.90
34766;DHT22;20984;43.508;1.504;2023-04-06T03:16:19;4.00;99.90
34766;DHT22;20984;43.508;1.504;2023-04-06T03:18:45;4.00;99.90
34766;DHT22;20984;43.508;1.504;2023-04-06T03:21:12;4.00;99.90
34766;DHT22;20984;43.508;1.504;2023-04-06T03:23:38;4.00;99.90
34766;DHT22;20984;43.508;1.504;2023-04-06T03:26:04;4.10;99.90
34766;DHT22;20984;43.508;1.504;2023-04-06T03:28:31;4.10;99.90
34766;DHT22;20984;43.508;1.504;2023-04-06T03:30:56;4.10;99.90
34766;DHT22;20984;43.508;1.504;2023-04-06T03:33:22;4.20;99.90
34766;DHT22;20984;43.508;1.504;2023-04-06T03:35:48;4.20;99.90
34766;DHT22;20984;43.508;1.504;2023-04-06T03:38:13;4.30;99.90
34766;DHT22;20984;43.508;1.504;2023-04-06T03:40:39;4.30;99.90
34766;DHT22;20984;43.508;1.504;2023-04-06T03:43:05;4.40;99.90
34766;DHT22;20984;43.508;1.504;2023-04-06T03:45:31;4.40;99.90
34766;DHT22;20984;43.508;1.504;2023-04-06T03:47:57;4.40;99.90
34766;DHT22;20984;43.508;1.504;2023-04-06T03:50:22;4.40;99.90
34766;DHT22;20984;43.508;1.504;2023-04-06T03:52:48;4.40;99.90
34766;DHT22;20984;43.508;1.504;2023-04-06T03:55:13;4.40;99.90
34766;DHT22;20984;43.508;1.504;2023-04-06T03:57:39;4.40;99.90
34766;DHT22;20984;43.508;1.504;2023-04-06T04:00:07;4.40;99.90
34766;DHT22;20984;43.508;1.504;2023-04-06T04:02:33;4.40;99.90
34766;DHT22;20984;43.508;1.504;2023-04-06T04:04:58;4.40;99.90
34766;DHT22;20984;43.508;1.504;2023-04-06T04:07:24;4.40;99.90
34766;DHT22;20984;43.508;1.504;2023-04-06T04:09:50;4.40;99.90
34766;DHT22;20984;43.508;1.504;2023-04-06T04:12:16;4.40;99.90
34766;DHT22;20984;43.508;1.504;2023-04-06T04:14:42;4.50;99.90
34766;DHT22;20984;43.508;1.504;2023-04-06T04:17:09;4.50;99.90
34766;DHT22;20984;43.508;1.504;2023-04-06T04:19:35;4.50;99.90
34766;DHT22;20984;43.508;1.504;2023-04-06T04:22:00;4.50;99.90
34766;DHT22;20984;43.508;1.504;2023-04-06T04:24:26;4.50;99.90
34766;DHT22;20984;43.508;1.504;2023-04-06T04:26:51;4.50;99.90
34766;DHT22;20984;43.508;1.504;2023-04-06T04:29:17;4.60;99.90
34766;DHT22;20984;43.508;1.504;2023-04-06T04:31:46;4.60;99.90
34766;DHT22;20984;43.508;1.504;2023-04-06T04:34:12;4.60;99.90
34766;DHT22;20984;43.508;1.504;2023-04-06T04:36:38;4.60;99.90
34766;DHT22;20984;43.508;1.504;2023-04-06T04:39:03;4.60;99.90
34766;DHT22;20984;43.508;1.504;2023-04-06T04:41:29;4.60;99.90
34766;DHT22;20984;43.508;1.504;2023-04-06T04:43:55;4.50;99.90
34766;DHT22;20984;43.508;1.504;2023-04-06T04:46:21;4.50;99.90
34766;DHT22;20984;43.508;1.504;2023-04-06T04:48:46;4.50;99.90
34766;DHT22;20984;43.508;1.504;2023-04-06T04:51:12;4.50;99.90
34766;DHT22;20984;43.508;1.504;2023-04-06T04:53:38;4.50;99.90
34766;DHT22;20984;43.508;1.504;2023-04-06T04:56:04;4.60;99.90
34766;DHT22;20984;43.508;1.504;2023-04-06T04:58:29;4.60;99.90
34766;DHT22;20984;43.508;1.504;2023-04-06T05:00:55;4.60;99.90
34766;DHT22;20984;43.508;1.504;2023-04-06T05:03:23;4.60;99.90
34766;DHT22;20984;43.508;1.504;2023-04-06T05:05:50;4.70;99.90
34766;DHT22;20984;43.508;1.504;2023-04-06T05:08:15;4.70;99.90
34766;DHT22;20984;43.508;1.504;2023-04-06T05:10:42;4.70;99.90
34766;DHT22;20984;43.508;1.504;2023-04-06T05:13:08;4.70;99.90
34766;DHT22;20984;43.508;1.504;2023-04-06T05:15:33;4.70;99.90
34766;DHT22;20984;43.508;1.504;2023-04-06T05:18:07;4.70;99.90
34766;DHT22;20984;43.508;1.504;2023-04-06T05:20:34;4.70;99.90
34766;DHT22;20984;43.508;1.504;2023-04-06T05:23:00;4.80;99.90
34766;DHT22;20984;43.508;1.504;2023-04-06T05:25:25;4.80;99.90
34766;DHT22;20984;43.508;1.504;2023-04-06T05:27:52;4.70;99.90
34766;DHT22;20984;43.508;1.504;2023-04-06T05:30:17;4.70;99.90
34766;DHT22;20984;43.508;1.504;2023-04-06T05:32:43;4.70;99.90
34766;DHT22;20984;43.508;1.504;2023-04-06T05:35:10;4.70;99.90
34766;DHT22;20984;43.508;1.504;2023-04-06T05:37:36;4.70;99.90
34766;DHT22;20984;43.508;1.504;2023-04-06T05:40:02;4.70;99.90
34766;DHT22;20984;43.508;1.504;2023-04-06T05:42:36;4.60;99.90
34766;DHT22;20984;43.508;1.504;2023-04-06T05:45:04;4.60;99.90
34766;DHT22;20984;43.508;1.504;2023-04-06T05:47:29;4.60;99.90
34766;DHT22;20984;43.508;1.504;2023-04-06T05:49:55;4.60;99.90
34766;DHT22;20984;43.508;1.504;2023-04-06T05:52:21;4.60;99.90
34766;DHT22;20984;43.508;1.504;2023-04-06T05:54:46;4.60;99.90
34766;DHT22;20984;43.508;1.504;2023-04-06T05:57:12;4.50;99.90
34766;DHT22;20984;43.508;1.504;2023-04-06T05:59:38;4.50;99.90
34766;DHT22;20984;43.508;1.504;2023-04-06T06:02:03;4.50;99.90
34766;DHT22;20984;43.508;1.504;2023-04-06T06:04:30;4.60;99.90
34766;DHT22;20984;43.508;1.504;2023-04-06T06:06:56;4.60;99.90
34766;DHT22;20984;43.508;1.504;2023-04-06T06:09:22;4.70;99.90
34766;DHT22;20984;43.508;1.504;2023-04-06T06:11:48;4.80;99.90
34766;DHT22;20984;43.508;1.504;2023-04-06T06:14:14;4.90;99.90
34766;DHT22;20984;43.508;1.504;2023-04-06T06:16:40;4.90;99.90
34766;DHT22;20984;43.508;1.504;2023-04-06T06:19:06;5.00;99.90
34766;DHT22;20984;43.508;1.504;2023-04-06T06:21:32;5.20;99.90
34766;DHT22;20984;43.508;1.504;2023-04-06T06:23:57;5.20;99.90
34766;DHT22;20984;43.508;1.504;2023-04-06T06:26:23;5.40;99.90
34766;DHT22;20984;43.508;1.504;2023-04-06T06:28:48;5.40;99.90
34766;DHT22;20984;43.508;1.504;2023-04-06T06:31:14;5.60;99.90
34766;DHT22;20984;43.508;1.504;2023-04-06T06:33:40;5.60;99.90
34766;DHT22;20984;43.508;1.504;2023-04-06T06:36:06;5.70;99.90
34766;DHT22;20984;43.508;1.504;2023-04-06T06:38:32;5.70;99.90
34766;DHT22;20984;43.508;1.504;2023-04-06T06:40:57;5.80;99.90
34766;DHT22;20984;43.508;1.504;2023-04-06T06:43:23;6.00;99.90
34766;DHT22;20984;43.508;1.504;2023-04-06T06:45:49;6.10;99.90
34766;DHT22;20984;43.508;1.504;2023-04-06T06:48:15;6.20;99.90
34766;DHT22;20984;43.508;1.504;2023-04-06T06:50:41;6.30;99.90
34766;DHT22;20984;43.508;1.504;2023-04-06T06:53:06;6.40;99.90
34766;DHT22;20984;43.508;1.504;2023-04-06T06:55:32;6.60;99.90
34766;DHT22;20984;43.508;1.504;2023-04-06T06:57:58;6.80;99.90
34766;DHT22;20984;43.508;1.504;2023-04-06T07:00:23;7.00;99.90
34766;DHT22;20984;43.508;1.504;2023-04-06T07:02:49;7.10;99.90
34766;DHT22;20984;43.508;1.504;2023-04-06T07:05:16;7.20;99.90
34766;DHT22;20984;43.508;1.504;2023-04-06T07:07:42;7.30;99.90
34766;DHT22;20984;43.508;1.504;2023-04-06T07:10:08;7.30;99.90
34766;DHT22;20984;43.508;1.504;2023-04-06T07:12:33;7.30;99.90
34766;DHT22;20984;43.508;1.504;2023-04-06T07:15:00;7.40;99.90
34766;DHT22;20984;43.508;1.504;2023-04-06T07:17:25;7.50;99.90
34766;DHT22;20984;43.508;1.504;2023-04-06T07:19:51;7.50;99.90
34766;DHT22;20984;43.508;1.504;2023-04-06T07:22:17;7.70;99.90
34766;DHT22;20984;43.508;1.504;2023-04-06T07:24:42;7.80;99.90
34766;DHT22;20984;43.508;1.504;2023-04-06T07:27:08;7.80;99.90
34766;DHT22;20984;43.508;1.504;2023-04-06T07:29:34;7.90;99.90
34766;DHT22;20984;43.508;1.504;2023-04-06T07:32:00;7.80;99.90
34766;DHT22;20984;43.508;1.504;2023-04-06T07:34:25;7.90;99.90
34766;DHT22;20984;43.508;1.504;2023-04-06T07:36:51;7.90;99.90
34766;DHT22;20984;43.508;1.504;2023-04-06T07:39:19;8.00;99.90
34766;DHT22;20984;43.508;1.504;2023-04-06T07:41:45;8.00;99.90
34766;DHT22;20984;43.508;1.504;2023-04-06T07:44:11;8.20;99.90
34766;DHT22;20984;43.508;1.504;2023-04-06T07:46:36;8.20;99.90
34766;DHT22;20984;43.508;1.504;2023-04-06T07:49:02;8.40;99.90
34766;DHT22;20984;43.508;1.504;2023-04-06T07:51:28;8.50;99.90
34766;DHT22;20984;43.508;1.504;2023-04-06T07:53:54;8.70;99.90
34766;DHT22;20984;43.508;1.504;2023-04-06T07:56:20;9.00;99.90
34766;DHT22;20984;43.508;1.504;2023-04-06T07:58:46;9.30;99.90
34766;DHT22;20984;43.508;1.504;2023-04-06T08:01:12;9.60;99.90
34766;DHT22;20984;43.508;1.504;2023-04-06T08:03:38;9.80;99.90
34766;DHT22;20984;43.508;1.504;2023-04-06T08:06:04;10.00;99.90
34766;DHT22;20984;43.508;1.504;2023-04-06T08:08:30;10.30;99.90
34766;DHT22;20984;43.508;1.504;2023-04-06T08:10:56;10.50;99.90
34766;DHT22;20984;43.508;1.504;2023-04-06T08:13:22;10.60;99.90
34766;DHT22;20984;43.508;1.504;2023-04-06T08:15:48;10.70;99.90
34766;DHT22;20984;43.508;1.504;2023-04-06T08:18:14;10.90;99.90
34766;DHT22;20984;43.508;1.504;2023-04-06T08:20:40;10.90;99.90
34766;DHT22;20984;43.508;1.504;2023-04-06T08:23:05;11.00;99.90
34766;DHT22;20984;43.508;1.504;2023-04-06T08:25:34;11.10;99.90
34766;DHT22;20984;43.508;1.504;2023-04-06T08:28:00;11.00;99.90
34766;DHT22;20984;43.508;1.504;2023-04-06T08:30:26;11.00;99.90
34766;DHT22;20984;43.508;1.504;2023-04-06T08:32:52;10.90;99.90
34766;DHT22;20984;43.508;1.504;2023-04-06T08:35:17;10.90;99.90
34766;DHT22;20984;43.508;1.504;2023-04-06T08:37:44;11.10;99.90
34766;DHT22;20984;43.508;1.504;2023-04-06T08:40:10;11.30;99.90
34766;DHT22;20984;43.508;1.504;2023-04-06T08:42:40;11.30;99.90
34766;DHT22;20984;43.508;1.504;2023-04-06T08:45:08;11.40;99.90
34766;DHT22;20984;43.508;1.504;2023-04-06T08:47:35;11.50;99.90
34766;DHT22;20984;43.508;1.504;2023-04-06T08:50:04;11.60;99.90
34766;DHT22;20984;43.508;1.504;2023-04-06T08:52:32;11.70;99.90
34766;DHT22;20984;43.508;1.504;2023-04-06T08:54:58;11.70;99.90
34766;DHT22;20984;43.508;1.504;2023-04-06T08:57:24;11.90;99.90
34766;DHT22;20984;43.508;1.504;2023-04-06T08:59:51;11.90;99.90
34766;DHT22;20984;43.508;1.504;2023-04-06T09:02:18;12.10;99.90
34766;DHT22;20984;43.508;1.504;2023-04-06T09:04:46;12.10;99.90
34766;DHT22;20984;43.508;1.504;2023-04-06T09:07:14;12.10;99.90
34766;DHT22;20984;43.508;1.504;2023-04-06T09:09:40;12.20;99.90
34766;DHT22;20984;43.508;1.504;2023-04-06T09:12:29;12.20;99.90
34766;DHT22;20984;43.508;1.504;2023-04-06T09:14:55;12.30;99.90
34766;DHT22;20984;43.508;1.504;2023-04-06T09:17:26;12.50;99.90
34766;DHT22;20984;43.508;1.504;2023-04-06T09:19:52;12.60;99.90
34766;DHT22;20984;43.508;1.504;2023-04-06T09:22:19;12.80;99.90
34766;DHT22;20984;43.508;1.504;2023-04-06T09:24:50;12.90;99.90
34766;DHT22;20984;43.508;1.504;2023-04-06T09:27:16;13.20;99.90
34766;DHT22;20984;43.508;1.504;2023-04-06T09:29:42;13.20;99.90
34766;DHT22;20984;43.508;1.504;2023-04-06T09:32:10;13.10;99.90
34766;DHT22;20984;43.508;1.504;2023-04-06T09:34:38;13.10;99.90
34766;DHT22;20984;43.508;1.504;2023-04-06T09:37:16;13.10;99.90
34766;DHT22;20984;43.508;1.504;2023-04-06T09:39:43;13.30;99.90
34766;DHT22;20984;43.508;1.504;2023-04-06T09:42:09;13.40;99.90
34766;DHT22;20984;43.508;1.504;2023-04-06T09:44:35;13.30;99.90
34766;DHT22;20984;43.508;1.504;2023-04-06T09:47:03;13.20;99.90
34766;DHT22;20984;43.508;1.504;2023-04-06T09:49:33;13.10;99.90
34766;DHT22;20984;43.508;1.504;2023-04-06T09:52:02;13.20;99.90
34766;DHT22;20984;43.508;1.504;2023-04-06T09:54:31;13.10;99.90
34766;DHT22;20984;43.508;1.504;2023-04-06T10:07:33;13.30;99.90
34766;DHT22;20984;43.508;1.504;2023-04-06T10:10:00;13.40;99.90
34766;DHT22;20984;43.508;1.504;2023-04-06T10:12:27;13.70;99.90
34766;DHT22;20984;43.508;1.504;2023-04-06T10:14:53;14.10;99.90
34766;DHT22;20984;43.508;1.504;2023-04-06T10:17:19;14.30;99.90
34766;DHT22;20984;43.508;1.504;2023-04-06T10:20:02;14.30;99.90
34766;DHT22;20984;43.508;1.504;2023-04-06T10:22:55;14.60;99.90
34766;DHT22;20984;43.508;1.504;2023-04-06T10:25:30;15.00;99.90
34766;DHT22;20984;43.508;1.504;2023-04-06T10:28:06;14.90;99.90
34766;DHT22;20984;43.508;1.504;2023-04-06T10:30:41;14.80;99.90
34766;DHT22;20984;43.508;1.504;2023-04-06T10:35:40;14.70;99.90
34766;DHT22;20984;43.508;1.504;2023-04-06T10:38:06;14.30;99.90
34766;DHT22;20984;43.508;1.504;2023-04-06T10:40:36;14.00;99.90
34766;DHT22;20984;43.508;1.504;2023-04-06T10:43:10;13.70;99.90
34766;DHT22;20984;43.508;1.504;2023-04-06T10:45:37;13.50;99.90
34766;DHT22;20984;43.508;1.504;2023-04-06T10:48:42;13.50;99.90
34766;DHT22;20984;43.508;1.504;2023-04-06T10:51:12;13.50;99.90
34766;DHT22;20984;43.508;1.504;2023-04-06T10:53:46;13.60;99.90
34766;DHT22;20984;43.508;1.504;2023-04-06T10:56:17;13.50;99.90
34766;DHT22;20984;43.508;1.504;2023-04-06T10:58:51;13.60;99.90
34766;DHT22;20984;43.508;1.504;2023-04-06T11:01:19;13.70;99.90
34766;DHT22;20984;43.508;1.504;2023-04-06T11:03:47;13.90;99.90
34766;DHT22;20984;43.508;1.504;2023-04-06T11:06:26;14.10;99.90
34766;DHT22;20984;43.508;1.504;2023-04-06T11:08:53;14.30;99.20
34766;DHT22;20984;43.508;1.504;2023-04-06T11:11:20;14.30;98.50
34766;DHT22;20984;43.508;1.504;2023-04-06T11:16:23;14.20;95.40
34766;DHT22;20984;43.508;1.504;2023-04-06T11:19:00;14.20;95.70
34766;DHT22;20984;43.508;1.504;2023-04-06T11:21:40;14.30;95.30
34766;DHT22;20984;43.508;1.504;2023-04-06T11:29:05;14.40;93.00
34766;DHT22;20984;43.508;1.504;2023-04-06T11:31:34;14.50;92.10
34766;DHT22;20984;43.508;1.504;2023-04-06T11:34:09;14.50;91.90
34766;DHT22;20984;43.508;1.504;2023-04-06T11:36:35;14.70;89.80
34766;DHT22;20984;43.508;1.504;2023-04-06T11:39:03;14.60;90.50
34766;DHT22;20984;43.508;1.504;2023-04-06T11:41:28;14.80;90.70
34766;DHT22;20984;43.508;1.504;2023-04-06T11:43:55;14.90;89.20
34766;DHT22;20984;43.508;1.504;2023-04-06T11:46:21;14.90;88.20
34766;DHT22;20984;43.508;1.504;2023-04-06T11:48:47;15.00;90.00
34766;DHT22;20984;43.508;1.504;2023-04-06T11:51:21;14.90;91.80
34766;DHT22;20984;43.508;1.504;2023-04-06T11:53:49;15.00;88.40
34766;DHT22;20984;43.508;1.504;2023-04-06T11:56:28;15.10;90.70
34766;DHT22;20984;43.508;1.504;2023-04-06T11:58:58;15.30;88.70
34766;DHT22;20984;43.508;1.504;2023-04-06T12:01:25;15.40;82.40
34766;DHT22;20984;43.508;1.504;2023-04-06T12:03:51;15.50;83.10
34766;DHT22;20984;43.508;1.504;2023-04-06T12:06:17;15.50;80.50
34766;DHT22;20984;43.508;1.504;2023-04-06T12:08:44;15.50;81.00
34766;DHT22;20984;43.508;1.504;2023-04-06T12:11:12;15.50;81.80
34766;DHT22;20984;43.508;1.504;2023-04-06T12:13:38;15.60;83.00
34766;DHT22;20984;43.508;1.504;2023-04-06T12:16:04;15.70;80.70
34766;DHT22;20984;43.508;1.504;2023-04-06T12:18:30;15.80;78.60
34766;DHT22;20984;43.508;1.504;2023-04-06T12:20:56;15.70;79.90
34766;DHT22;20984;43.508;1.504;2023-04-06T12:23:22;15.80;82.00
34766;DHT22;20984;43.508;1.504;2023-04-06T12:25:48;16.00;80.00
34766;DHT22;20984;43.508;1.504;2023-04-06T12:28:13;16.20;80.30
34766;DHT22;20984;43.508;1.504;2023-04-06T12:30:39;16.40;78.60
34766;DHT22;20984;43.508;1.504;2023-04-06T12:33:06;16.40;72.30
34766;DHT22;20984;43.508;1.504;2023-04-06T12:35:36;16.40;73.60
34766;DHT22;20984;43.508;1.504;2023-04-06T12:38:02;16.40;70.50
34766;DHT22;20984;43.508;1.504;2023-04-06T12:40:27;16.40;73.00
34766;DHT22;20984;43.508;1.504;2023-04-06T12:42:53;16.50;71.90
34766;DHT22;20984;43.508;1.504;2023-04-06T12:45:19;16.60;72.50
34766;DHT22;20984;43.508;1.504;2023-04-06T12:47:44;16.70;73.40
34766;DHT22;20984;43.508;1.504;2023-04-06T12:50:10;16.80;70.70
34766;DHT22;20984;43.508;1.504;2023-04-06T12:52:36;16.80;66.20
34766;DHT22;20984;43.508;1.504;2023-04-06T12:55:04;16.70;64.00
34766;DHT22;20984;43.508;1.504;2023-04-06T12:57:31;16.80;63.60
34766;DHT22;20984;43.508;1.504;2023-04-06T12:59:57;16.80;64.80
34766;DHT22;20984;43.508;1.504;2023-04-06T13:02:23;16.80;67.50
34766;DHT22;20984;43.508;1.504;2023-04-06T13:04:49;16.90;66.70
34766;DHT22;20984;43.508;1.504;2023-04-06T13:07:15;16.90;67.60
34766;DHT22;20984;43.508;1.504;2023-04-06T13:09:41;16.90;67.00
34766;DHT22;20984;43.508;1.504;2023-04-06T13:12:07;16.90;68.10
34766;DHT22;20984;43.508;1.504;2023-04-06T13:14:33;17.00;66.90
34766;DHT22;20984;43.508;1.504;2023-04-06T13:16:58;16.90;65.60
34766;DHT22;20984;43.508;1.504;2023-04-06T13:19:25;17.00;69.40
34766;DHT22;20984;43.508;1.504;2023-04-06T13:21:50;17.00;67.60
34766;DHT22;20984;43.508;1.504;2023-04-06T13:24:16;17.10;67.60
34766;DHT22;20984;43.508;1.504;2023-04-06T13:26:42;17.20;69.30
34766;DHT22;20984;43.508;1.504;2023-04-06T13:29:08;17.40;67.20
34766;DHT22;20984;43.508;1.504;2023-04-06T13:31:33;17.30;65.10
34766;DHT22;20984;43.508;1.504;2023-04-06T13:33:59;17.30;65.20
34766;DHT22;20984;43.508;1.504;2023-04-06T13:36:25;17.30;64.90
34766;DHT22;20984;43.508;1.504;2023-04-06T13:38:52;17.40;67.80
34766;DHT22;20984;43.508;1.504;2023-04-06T13:41:21;17.50;65.30
34766;DHT22;20984;43.508;1.504;2023-04-06T13:43:47;17.70;64.00
34766;DHT22;20984;43.508;1.504;2023-04-06T13:46:13;17.70;63.60
34766;DHT22;20984;43.508;1.504;2023-04-06T13:48:39;17.80;63.10
34766;DHT22;20984;43.508;1.504;2023-04-06T13:51:11;18.00;65.50
34766;DHT22;20984;43.508;1.504;2023-04-06T13:53:37;18.00;61.20
34766;DHT22;20984;43.508;1.504;2023-04-06T13:56:02;18.20;60.70
34766;DHT22;20984;43.508;1.504;2023-04-06T13:58:28;18.00;58.00
34766;DHT22;20984;43.508;1.504;2023-04-06T14:00:54;17.90;57.70
34766;DHT22;20984;43.508;1.504;2023-04-06T14:03:20;17.90;58.80
34766;DHT22;20984;43.508;1.504;2023-04-06T14:05:46;18.00;60.30
34766;DHT22;20984;43.508;1.504;2023-04-06T14:08:12;18.20;64.20
34766;DHT22;20984;43.508;1.504;2023-04-06T14:10:38;18.40;59.10
34766;DHT22;20984;43.508;1.504;2023-04-06T14:13:04;18.30;58.60
34766;DHT22;20984;43.508;1.504;2023-04-06T14:15:30;18.30;59.50
34766;DHT22;20984;43.508;1.504;2023-04-06T14:17:56;18.40;59.00
34766;DHT22;20984;43.508;1.504;2023-04-06T14:20:22;18.50;60.00
34766;DHT22;20984;43.508;1.504;2023-04-06T14:22:47;18.60;58.40
34766;DHT22;20984;43.508;1.504;2023-04-06T14:25:15;18.60;59.20
34766;DHT22;20984;43.508;1.504;2023-04-06T14:27:42;18.50;59.70
34766;DHT22;20984;43.508;1.504;2023-04-06T14:30:08;18.60;64.40
34766;DHT22;20984;43.508;1.504;2023-04-06T14:32:34;18.80;60.30
34766;DHT22;20984;43.508;1.504;2023-04-06T14:35:01;18.90;60.40
34766;DHT22;20984;43.508;1.504;2023-04-06T14:37:26;18.90;60.10
34766;DHT22;20984;43.508;1.504;2023-04-06T14:39:52;18.80;61.50
34766;DHT22;20984;43.508;1.504;2023-04-06T14:42:18;18.70;62.20
34766;DHT22;20984;43.508;1.504;2023-04-06T14:44:43;18.90;59.90
34766;DHT22;20984;43.508;1.504;2023-04-06T14:47:10;19.10;61.10
34766;DHT22;20984;43.508;1.504;2023-04-06T14:49:36;19.10;58.50
34766;DHT22;20984;43.508;1.504;2023-04-06T14:52:02;19.10;57.90
34766;DHT22;20984;43.508;1.504;2023-04-06T14:54:28;19.40;58.00
34766;DHT22;20984;43.508;1.504;2023-04-06T14:56:54;20.20;59.10
34766;DHT22;20984;43.508;1.504;2023-04-06T14:59:20;21.80;58.00
34766;DHT22;20984;43.508;1.504;2023-04-06T15:01:45;23.20;56.30
34766;DHT22;20984;43.508;1.504;2023-04-06T15:04:11;23.90;53.10
34766;DHT22;20984;43.508;1.504;2023-04-06T15:06:37;23.90;50.20
34766;DHT22;20984;43.508;1.504;2023-04-06T15:09:03;23.90;50.70
34766;DHT22;20984;43.508;1.504;2023-04-06T15:11:28;24.30;51.80
34766;DHT22;20984;43.508;1.504;2023-04-06T15:13:54;24.80;49.50
34766;DHT22;20984;43.508;1.504;2023-04-06T15:16:19;25.20;48.90
34766;DHT22;20984;43.508;1.504;2023-04-06T15:18:45;25.30;46.90
34766;DHT22;20984;43.508;1.504;2023-04-06T15:21:11;24.90;45.90
34766;DHT22;20984;43.508;1.504;2023-04-06T15:23:36;24.50;45.80
34766;DHT22;20984;43.508;1.504;2023-04-06T15:26:02;24.50;45.20
34766;DHT22;20984;43.508;1.504;2023-04-06T15:28:29;24.60;45.90
34766;DHT22;20984;43.508;1.504;2023-04-06T15:30:55;24.70;45.70
34766;DHT22;20984;43.508;1.504;2023-04-06T15:33:22;24.90;48.30
34766;DHT22;20984;43.508;1.504;2023-04-06T15:35:48;25.40;46.30
34766;DHT22;20984;43.508;1.504;2023-04-06T15:38:14;25.70;44.50
34766;DHT22;20984;43.508;1.504;2023-04-06T15:40:45;25.90;44.60
34766;DHT22;20984;43.508;1.504;2023-04-06T15:43:12;25.70;44.00
34766;DHT22;20984;43.508;1.504;2023-04-06T15:45:38;25.40;45.40
34766;DHT22;20984;43.508;1.504;2023-04-06T15:48:03;25.10;45.80
34766;DHT22;20984;43.508;1.504;2023-04-06T15:50:29;25.10;45.30
34766;DHT22;20984;43.508;1.504;2023-04-06T15:52:55;25.50;46.10
34766;DHT22;20984;43.508;1.504;2023-04-06T15:55:21;25.10;44.50
34766;DHT22;20984;43.508;1.504;2023-04-06T15:57:47;24.70;45.10